Jessica Heather — WDF9612 — position and weather

sailwx.info

Track history (hours):
 
Tides and Currents Weather Stations Pressure Air Temp Water Temp Dewpoint Dewpoint Depression Visibility Wind Speed Wind Dir Waves Ship Positions

Jessica Heather

Owner: F/V Paige Nicole, LLC, West Creek, NJ. More information available from US FCC via Universal Licensing System and Coast Guard Vessel Documentation Center.

Last reported at 2018-Jun-17 03:56 UTC. Time now 2018-Jun-21 18:15 UTC.
Position N 39°46' W 074°05'.

Length 19 m.

Type: Fishing. MMSI: 367506980.

Date/timePositionNaut miles runAvg speedWind from/ knotsBaromVisibWave heightAir tempDewpointWater temp
2018-Jun-17 03:56N 39°46' W 074°05'2 3.7
2018-Jun-17 03:29N 39°46' W 074°07'0 0.0
2018-Jun-17 01:19N 39°46' W 074°07'2 4.4
2018-Jun-17 00:50N 39°44' W 074°05'3 7.8
2018-Jun-17 00:30N 39°41' W 074°06'5 8.1
2018-Jun-16 23:55N 39°37' W 074°09'52 1.3
2018-Jun-15 07:08N 38°52' W 074°41'1 7.0
2018-Jun-15 07:00N 38°52' W 074°40'3 6.9
2018-Jun-15 06:30N 38°50' W 074°36'3 6.9
2018-Jun-15 06:00N 38°49' W 074°32'  
2018-Jun-08 09:48N 38°53' W 074°46'4 4.9
2018-Jun-08 09:04N 38°51' W 074°42'3 7.3
2018-Jun-08 08:42N 38°50' W 074°39'2 7.4
2018-Jun-08 08:30N 38°49' W 074°37'4 7.5
2018-Jun-08 08:00N 38°48' W 074°33'4 7.7
2018-Jun-08 07:30N 38°46' W 074°29'4 7.7
2018-Jun-08 07:00N 38°44' W 074°24'  
Track history (hours):
 
Tides and Currents Weather Stations Pressure Air Temp Water Temp Dewpoint Dewpoint Depression Visibility Wind Speed Wind Dir Waves Ship Positions

Jessica Heather

Owner: F/V Paige Nicole, LLC, West Creek, NJ. More information available from US FCC via Universal Licensing System and Coast Guard Vessel Documentation Center.

Last reported at 2018-Jun-17 03:56 UTC. Time now 2018-Jun-21 18:15 UTC.
Position N 39°46' W 074°05'.

Length 19 m.

Type: Fishing. MMSI: 367506980.

Date/timePositionNaut miles runAvg speedWind from/ knotsBaromVisibWave heightAir tempDewpointWater temp
2018-Jun-17 03:56N 39°46' W 074°05'2 3.7
2018-Jun-17 03:29N 39°46' W 074°07'0 0.0
2018-Jun-17 01:19N 39°46' W 074°07'2 4.4
2018-Jun-17 00:50N 39°44' W 074°05'3 7.8
2018-Jun-17 00:30N 39°41' W 074°06'5 8.1
2018-Jun-16 23:55N 39°37' W 074°09'52 1.3
2018-Jun-15 07:08N 38°52' W 074°41'1 7.0
2018-Jun-15 07:00N 38°52' W 074°40'3 6.9
2018-Jun-15 06:30N 38°50' W 074°36'3 6.9
2018-Jun-15 06:00N 38°49' W 074°32'  
2018-Jun-08 09:48N 38°53' W 074°46'4 4.9
2018-Jun-08 09:04N 38°51' W 074°42'3 7.3
2018-Jun-08 08:42N 38°50' W 074°39'2 7.4
2018-Jun-08 08:30N 38°49' W 074°37'4 7.5
2018-Jun-08 08:00N 38°48' W 074°33'4 7.7
2018-Jun-08 07:30N 38°46' W 074°29'4 7.7
2018-Jun-08 07:00N 38°44' W 074°24'  

Dump ship's entire track history